Archena, Spain
Current Conditions -  °F | °C
As of 9:00 AM on Monday 24 Nov 2014 (Local Time) from LELC Reporting Station
Few Clouds Few Clouds  
Wind Chill: 61°   Ceiling: Unl
Heat Index: 61°   Visibility: 6mi
Dew Point: 55°   Wind: 5mph
Humidity: 82%   Direction: 330°NNW
Pressure: 29.97"   Gusts: NA
Location:  38.12°N, 1.3°W
Report Text: LELC 240800Z 33004KT 280V350 9999 FEW030 16/13 Q1015 NOSIG
Loading
Personal Weather Stations






























Interactive Weather Map New forecast layout! Learn more

10-Day Weather Forecast

Advertisements
Track Severe Weather on mobile